sensor_id;sensor_type;location;lat;lon;timestamp;temperature;humidity
7000;DHT22;3540;53.242;10.408;2023-06-22T00:00:50;17.60;99.90
7000;DHT22;3540;53.242;10.408;2023-06-22T00:03:18;17.50;99.90
7000;DHT22;3540;53.242;10.408;2023-06-22T00:05:44;17.50;99.90
7000;DHT22;3540;53.242;10.408;2023-06-22T00:08:10;17.40;99.90
7000;DHT22;3540;53.242;10.408;2023-06-22T00:10:36;17.40;99.90
7000;DHT22;3540;53.242;10.408;2023-06-22T00:13:01;17.30;99.90
7000;DHT22;3540;53.242;10.408;2023-06-22T00:15:27;17.30;99.90
7000;DHT22;3540;53.242;10.408;2023-06-22T00:17:53;17.30;99.90
7000;DHT22;3540;53.242;10.408;2023-06-22T00:20:18;17.20;99.90
7000;DHT22;3540;53.242;10.408;2023-06-22T00:22:44;17.10;99.90
7000;DHT22;3540;53.242;10.408;2023-06-22T00:25:10;17.10;99.90
7000;DHT22;3540;53.242;10.408;2023-06-22T00:27:36;17.10;99.90
7000;DHT22;3540;53.242;10.408;2023-06-22T00:30:03;17.10;99.90
7000;DHT22;3540;53.242;10.408;2023-06-22T00:32:28;17.10;99.90
7000;DHT22;3540;53.242;10.408;2023-06-22T00:34:54;17.10;99.90
7000;DHT22;3540;53.242;10.408;2023-06-22T00:37:20;17.00;99.90
7000;DHT22;3540;53.242;10.408;2023-06-22T00:39:51;17.10;99.90
7000;DHT22;3540;53.242;10.408;2023-06-22T00:42:17;17.00;99.90
7000;DHT22;3540;53.242;10.408;2023-06-22T00:44:43;17.00;99.90
7000;DHT22;3540;53.242;10.408;2023-06-22T00:47:11;17.00;99.90
7000;DHT22;3540;53.242;10.408;2023-06-22T00:49:38;16.90;99.90
7000;DHT22;3540;53.242;10.408;2023-06-22T00:52:05;17.00;99.90
7000;DHT22;3540;53.242;10.408;2023-06-22T00:54:35;16.90;99.90
7000;DHT22;3540;53.242;10.408;2023-06-22T00:57:01;16.90;99.90
7000;DHT22;3540;53.242;10.408;2023-06-22T00:59:27;16.80;99.90
7000;DHT22;3540;53.242;10.408;2023-06-22T01:01:54;16.80;99.90
7000;DHT22;3540;53.242;10.408;2023-06-22T01:04:19;16.80;99.90
7000;DHT22;3540;53.242;10.408;2023-06-22T01:06:55;16.70;99.90
7000;DHT22;3540;53.242;10.408;2023-06-22T01:09:31;16.70;99.90
7000;DHT22;3540;53.242;10.408;2023-06-22T01:12:01;16.70;99.90
7000;DHT22;3540;53.242;10.408;2023-06-22T01:14:34;16.60;99.90
7000;DHT22;3540;53.242;10.408;2023-06-22T01:17:01;16.60;99.90
7000;DHT22;3540;53.242;10.408;2023-06-22T01:22:00;16.70;99.90
7000;DHT22;3540;53.242;10.408;2023-06-22T01:24:32;16.70;99.90
7000;DHT22;3540;53.242;10.408;2023-06-22T01:29:51;16.60;99.90
7000;DHT22;3540;53.242;10.408;2023-06-22T01:32:18;16.60;99.90
7000;DHT22;3540;53.242;10.408;2023-06-22T01:34:45;16.60;99.90
7000;DHT22;3540;53.242;10.408;2023-06-22T01:37:12;16.60;99.90
7000;DHT22;3540;53.242;10.408;2023-06-22T01:39:39;16.60;99.90
7000;DHT22;3540;53.242;10.408;2023-06-22T01:42:05;16.60;99.90
7000;DHT22;3540;53.242;10.408;2023-06-22T01:44:32;16.60;99.90
7000;DHT22;3540;53.242;10.408;2023-06-22T01:46:58;16.60;99.90
7000;DHT22;3540;53.242;10.408;2023-06-22T01:49:24;16.50;99.90
7000;DHT22;3540;53.242;10.408;2023-06-22T01:51:51;16.50;99.90
7000;DHT22;3540;53.242;10.408;2023-06-22T01:54:16;16.50;99.90
7000;DHT22;3540;53.242;10.408;2023-06-22T01:56:42;16.40;99.90
7000;DHT22;3540;53.242;10.408;2023-06-22T01:59:34;16.30;99.90
7000;DHT22;3540;53.242;10.408;2023-06-22T02:02:07;16.30;99.90
7000;DHT22;3540;53.242;10.408;2023-06-22T02:07:09;16.30;99.90
7000;DHT22;3540;53.242;10.408;2023-06-22T02:09:38;16.30;99.90
7000;DHT22;3540;53.242;10.408;2023-06-22T02:12:05;16.40;99.90
7000;DHT22;3540;53.242;10.408;2023-06-22T02:14:32;16.40;99.90
7000;DHT22;3540;53.242;10.408;2023-06-22T02:16:57;16.40;99.90
7000;DHT22;3540;53.242;10.408;2023-06-22T02:19:27;16.40;99.90
7000;DHT22;3540;53.242;10.408;2023-06-22T02:21:53;16.30;99.90
7000;DHT22;3540;53.242;10.408;2023-06-22T02:24:18;16.30;99.90
7000;DHT22;3540;53.242;10.408;2023-06-22T02:26:44;16.30;99.90
7000;DHT22;3540;53.242;10.408;2023-06-22T02:29:11;16.20;99.90
7000;DHT22;3540;53.242;10.408;2023-06-22T02:31:36;16.20;99.90
7000;DHT22;3540;53.242;10.408;2023-06-22T02:34:02;16.20;99.90
7000;DHT22;3540;53.242;10.408;2023-06-22T02:36:28;16.20;99.90
7000;DHT22;3540;53.242;10.408;2023-06-22T02:38:56;16.30;99.90
7000;DHT22;3540;53.242;10.408;2023-06-22T02:41:24;16.20;99.90
7000;DHT22;3540;53.242;10.408;2023-06-22T02:43:50;16.20;99.90
7000;DHT22;3540;53.242;10.408;2023-06-22T02:46:15;16.20;99.90
7000;DHT22;3540;53.242;10.408;2023-06-22T02:48:41;16.20;99.90
7000;DHT22;3540;53.242;10.408;2023-06-22T02:51:07;16.10;99.90
7000;DHT22;3540;53.242;10.408;2023-06-22T02:53:32;16.10;99.90
7000;DHT22;3540;53.242;10.408;2023-06-22T02:55:58;16.10;99.90
7000;DHT22;3540;53.242;10.408;2023-06-22T02:58:24;16.10;99.90
7000;DHT22;3540;53.242;10.408;2023-06-22T03:00:50;16.10;99.90
7000;DHT22;3540;53.242;10.408;2023-06-22T03:03:19;16.10;99.90
7000;DHT22;3540;53.242;10.408;2023-06-22T03:05:44;16.10;99.90
7000;DHT22;3540;53.242;10.408;2023-06-22T03:08:10;16.10;99.90
7000;DHT22;3540;53.242;10.408;2023-06-22T03:10:36;16.10;99.90
7000;DHT22;3540;53.242;10.408;2023-06-22T03:13:01;16.10;99.90
7000;DHT22;3540;53.242;10.408;2023-06-22T03:15:27;16.00;99.90
7000;DHT22;3540;53.242;10.408;2023-06-22T03:17:55;16.00;99.90
7000;DHT22;3540;53.242;10.408;2023-06-22T03:20:20;16.00;99.90
7000;DHT22;3540;53.242;10.408;2023-06-22T03:22:46;16.00;99.90
7000;DHT22;3540;53.242;10.408;2023-06-22T03:25:14;16.10;99.90
7000;DHT22;3540;53.242;10.408;2023-06-22T03:27:40;16.10;99.90
7000;DHT22;3540;53.242;10.408;2023-06-22T03:30:08;16.10;99.90
7000;DHT22;3540;53.242;10.408;2023-06-22T03:32:34;16.10;99.90
7000;DHT22;3540;53.242;10.408;2023-06-22T03:34:59;16.00;99.90
7000;DHT22;3540;53.242;10.408;2023-06-22T03:37:26;16.00;99.90
7000;DHT22;3540;53.242;10.408;2023-06-22T03:39:52;16.00;99.90
7000;DHT22;3540;53.242;10.408;2023-06-22T03:42:17;16.10;99.90
7000;DHT22;3540;53.242;10.408;2023-06-22T03:44:43;16.10;99.90
7000;DHT22;3540;53.242;10.408;2023-06-22T03:47:09;16.10;99.90
7000;DHT22;3540;53.242;10.408;2023-06-22T03:49:35;16.10;99.90
7000;DHT22;3540;53.242;10.408;2023-06-22T03:52:01;16.10;99.90
7000;DHT22;3540;53.242;10.408;2023-06-22T03:54:29;16.10;99.90
7000;DHT22;3540;53.242;10.408;2023-06-22T03:56:55;16.10;99.90
7000;DHT22;3540;53.242;10.408;2023-06-22T03:59:21;16.20;99.90
7000;DHT22;3540;53.242;10.408;2023-06-22T04:01:47;16.20;99.90
7000;DHT22;3540;53.242;10.408;2023-06-22T04:04:12;16.30;99.90
7000;DHT22;3540;53.242;10.408;2023-06-22T04:06:38;16.30;99.90
7000;DHT22;3540;53.242;10.408;2023-06-22T04:09:05;16.40;99.90
7000;DHT22;3540;53.242;10.408;2023-06-22T04:11:31;16.50;99.90
7000;DHT22;3540;53.242;10.408;2023-06-22T04:13:57;16.50;99.90
7000;DHT22;3540;53.242;10.408;2023-06-22T04:16:22;16.50;99.90
7000;DHT22;3540;53.242;10.408;2023-06-22T04:18:48;16.60;99.90
7000;DHT22;3540;53.242;10.408;2023-06-22T04:21:14;16.70;99.90
7000;DHT22;3540;53.242;10.408;2023-06-22T04:23:39;16.80;99.90
7000;DHT22;3540;53.242;10.408;2023-06-22T04:26:05;16.80;99.90
7000;DHT22;3540;53.242;10.408;2023-06-22T04:28:31;16.90;99.90
7000;DHT22;3540;53.242;10.408;2023-06-22T04:31:01;17.00;99.90
7000;DHT22;3540;53.242;10.408;2023-06-22T04:33:27;17.00;99.90
7000;DHT22;3540;53.242;10.408;2023-06-22T04:35:55;17.10;99.90
7000;DHT22;3540;53.242;10.408;2023-06-22T04:38:22;17.20;99.90
7000;DHT22;3540;53.242;10.408;2023-06-22T04:40:48;17.30;99.90
7000;DHT22;3540;53.242;10.408;2023-06-22T04:43:14;17.40;99.90
7000;DHT22;3540;53.242;10.408;2023-06-22T04:45:39;17.50;99.90
7000;DHT22;3540;53.242;10.408;2023-06-22T04:48:05;17.60;99.90
7000;DHT22;3540;53.242;10.408;2023-06-22T04:50:31;17.70;99.90
7000;DHT22;3540;53.242;10.408;2023-06-22T04:52:56;17.80;99.90
7000;DHT22;3540;53.242;10.408;2023-06-22T04:55:23;17.80;99.90
7000;DHT22;3540;53.242;10.408;2023-06-22T04:57:51;17.90;99.90
7000;DHT22;3540;53.242;10.408;2023-06-22T05:00:20;18.00;99.90
7000;DHT22;3540;53.242;10.408;2023-06-22T05:02:49;18.10;99.90
7000;DHT22;3540;53.242;10.408;2023-06-22T05:05:15;18.20;99.90
7000;DHT22;3540;53.242;10.408;2023-06-22T05:07:45;18.20;99.90
7000;DHT22;3540;53.242;10.408;2023-06-22T05:10:13;18.30;99.90
7000;DHT22;3540;53.242;10.408;2023-06-22T05:12:40;18.30;99.90
7000;DHT22;3540;53.242;10.408;2023-06-22T05:15:08;18.40;99.90
7000;DHT22;3540;53.242;10.408;2023-06-22T05:17:34;18.60;99.90
7000;DHT22;3540;53.242;10.408;2023-06-22T05:20:00;18.80;99.90
7000;DHT22;3540;53.242;10.408;2023-06-22T05:22:26;19.00;99.90
7000;DHT22;3540;53.242;10.408;2023-06-22T05:24:52;19.20;99.90
7000;DHT22;3540;53.242;10.408;2023-06-22T05:27:17;19.30;99.90
7000;DHT22;3540;53.242;10.408;2023-06-22T05:29:43;19.00;99.90
7000;DHT22;3540;53.242;10.408;2023-06-22T05:32:09;19.00;99.90
7000;DHT22;3540;53.242;10.408;2023-06-22T05:34:34;18.90;99.90
7000;DHT22;3540;53.242;10.408;2023-06-22T05:37:00;18.90;99.90
7000;DHT22;3540;53.242;10.408;2023-06-22T05:39:26;18.70;99.90
7000;DHT22;3540;53.242;10.408;2023-06-22T05:41:52;18.60;99.90
7000;DHT22;3540;53.242;10.408;2023-06-22T05:44:18;18.80;99.90
7000;DHT22;3540;53.242;10.408;2023-06-22T05:46:44;19.00;99.90
7000;DHT22;3540;53.242;10.408;2023-06-22T05:49:12;19.00;99.90
7000;DHT22;3540;53.242;10.408;2023-06-22T05:51:38;19.20;99.90
7000;DHT22;3540;53.242;10.408;2023-06-22T05:54:04;19.40;99.90
7000;DHT22;3540;53.242;10.408;2023-06-22T05:56:29;19.40;99.90
7000;DHT22;3540;53.242;10.408;2023-06-22T05:58:55;19.60;99.90
7000;DHT22;3540;53.242;10.408;2023-06-22T06:01:21;19.50;99.90
7000;DHT22;3540;53.242;10.408;2023-06-22T06:03:47;19.40;99.90
7000;DHT22;3540;53.242;10.408;2023-06-22T06:06:12;19.40;99.90
7000;DHT22;3540;53.242;10.408;2023-06-22T06:08:39;19.50;99.90
7000;DHT22;3540;53.242;10.408;2023-06-22T06:11:04;19.40;99.90
7000;DHT22;3540;53.242;10.408;2023-06-22T06:13:30;19.40;99.90
7000;DHT22;3540;53.242;10.408;2023-06-22T06:15:56;19.60;99.90
7000;DHT22;3540;53.242;10.408;2023-06-22T06:18:22;19.60;99.90
7000;DHT22;3540;53.242;10.408;2023-06-22T06:20:48;19.80;99.90
7000;DHT22;3540;53.242;10.408;2023-06-22T06:23:14;20.00;99.90
7000;DHT22;3540;53.242;10.408;2023-06-22T06:25:40;19.90;99.90
7000;DHT22;3540;53.242;10.408;2023-06-22T06:28:05;19.80;99.90
7000;DHT22;3540;53.242;10.408;2023-06-22T06:30:31;19.90;99.90
7000;DHT22;3540;53.242;10.408;2023-06-22T06:32:56;20.00;99.90
7000;DHT22;3540;53.242;10.408;2023-06-22T06:35:22;20.00;99.90
7000;DHT22;3540;53.242;10.408;2023-06-22T06:37:49;19.90;99.90
7000;DHT22;3540;53.242;10.408;2023-06-22T06:40:17;19.80;99.90
7000;DHT22;3540;53.242;10.408;2023-06-22T06:42:47;19.90;99.90
7000;DHT22;3540;53.242;10.408;2023-06-22T06:45:32;20.00;99.90
7000;DHT22;3540;53.242;10.408;2023-06-22T06:47:59;19.90;99.90
7000;DHT22;3540;53.242;10.408;2023-06-22T06:50:25;19.80;99.90
7000;DHT22;3540;53.242;10.408;2023-06-22T06:52:51;19.90;99.90
7000;DHT22;3540;53.242;10.408;2023-06-22T06:55:17;20.10;99.90
7000;DHT22;3540;53.242;10.408;2023-06-22T06:57:43;20.30;99.90
7000;DHT22;3540;53.242;10.408;2023-06-22T07:00:11;20.50;99.90
7000;DHT22;3540;53.242;10.408;2023-06-22T07:02:39;20.70;99.90
7000;DHT22;3540;53.242;10.408;2023-06-22T07:05:05;20.70;99.90
7000;DHT22;3540;53.242;10.408;2023-06-22T07:07:32;20.70;99.90
7000;DHT22;3540;53.242;10.408;2023-06-22T07:09:58;20.90;99.90
7000;DHT22;3540;53.242;10.408;2023-06-22T07:12:23;21.20;99.90
7000;DHT22;3540;53.242;10.408;2023-06-22T07:14:49;21.50;99.90
7000;DHT22;3540;53.242;10.408;2023-06-22T07:17:15;21.70;99.90
7000;DHT22;3540;53.242;10.408;2023-06-22T07:19:41;21.60;99.90
7000;DHT22;3540;53.242;10.408;2023-06-22T07:22:07;21.60;99.90
7000;DHT22;3540;53.242;10.408;2023-06-22T07:24:34;21.80;99.90
7000;DHT22;3540;53.242;10.408;2023-06-22T07:27:00;21.90;99.90
7000;DHT22;3540;53.242;10.408;2023-06-22T07:29:27;22.10;99.90
7000;DHT22;3540;53.242;10.408;2023-06-22T07:31:53;22.30;99.90
7000;DHT22;3540;53.242;10.408;2023-06-22T07:34:22;22.60;99.90
7000;DHT22;3540;53.242;10.408;2023-06-22T07:36:48;22.60;1.00
7000;DHT22;3540;53.242;10.408;2023-06-22T07:39:13;22.70;1.00
7000;DHT22;3540;53.242;10.408;2023-06-22T07:41:40;22.80;1.00
7000;DHT22;3540;53.242;10.408;2023-06-22T07:44:06;22.80;99.90
7000;DHT22;3540;53.242;10.408;2023-06-22T07:46:32;22.90;76.50
7000;DHT22;3540;53.242;10.408;2023-06-22T07:48:58;22.90;99.90
7000;DHT22;3540;53.242;10.408;2023-06-22T07:51:25;23.00;1.00
7000;DHT22;3540;53.242;10.408;2023-06-22T07:53:51;23.20;1.00
7000;DHT22;3540;53.242;10.408;2023-06-22T07:56:17;23.20;1.00
7000;DHT22;3540;53.242;10.408;2023-06-22T07:58:46;23.10;1.00
7000;DHT22;3540;53.242;10.408;2023-06-22T08:01:15;23.20;99.90
7000;DHT22;3540;53.242;10.408;2023-06-22T08:03:42;23.30;3.90
7000;DHT22;3540;53.242;10.408;2023-06-22T08:06:08;23.50;1.00
7000;DHT22;3540;53.242;10.408;2023-06-22T08:08:35;23.60;1.00
7000;DHT22;3540;53.242;10.408;2023-06-22T08:11:01;23.80;99.90
7000;DHT22;3540;53.242;10.408;2023-06-22T08:13:26;23.70;99.90
7000;DHT22;3540;53.242;10.408;2023-06-22T08:15:52;23.80;99.90
7000;DHT22;3540;53.242;10.408;2023-06-22T08:18:18;24.10;1.00
7000;DHT22;3540;53.242;10.408;2023-06-22T08:20:43;24.40;1.00
7000;DHT22;3540;53.242;10.408;2023-06-22T08:23:09;24.40;99.90
7000;DHT22;3540;53.242;10.408;2023-06-22T08:25:35;24.40;99.90
7000;DHT22;3540;53.242;10.408;2023-06-22T08:28:04;24.80;1.00
7000;DHT22;3540;53.242;10.408;2023-06-22T08:30:30;24.60;99.90
7000;DHT22;3540;53.242;10.408;2023-06-22T08:32:56;24.80;1.00
7000;DHT22;3540;53.242;10.408;2023-06-22T08:35:22;25.00;1.00
7000;DHT22;3540;53.242;10.408;2023-06-22T08:37:48;24.90;1.00
7000;DHT22;3540;53.242;10.408;2023-06-22T08:40:22;24.80;1.00
7000;DHT22;3540;53.242;10.408;2023-06-22T08:42:49;25.00;1.00
7000;DHT22;3540;53.242;10.408;2023-06-22T08:45:15;24.90;1.00
7000;DHT22;3540;53.242;10.408;2023-06-22T08:47:42;24.80;1.00
7000;DHT22;3540;53.242;10.408;2023-06-22T08:50:11;24.80;1.00
7000;DHT22;3540;53.242;10.408;2023-06-22T08:52:38;24.90;99.90
7000;DHT22;3540;53.242;10.408;2023-06-22T08:55:07;25.30;1.00
7000;DHT22;3540;53.242;10.408;2023-06-22T08:57:33;25.00;1.00
7000;DHT22;3540;53.242;10.408;2023-06-22T08:59:59;24.70;99.90
7000;DHT22;3540;53.242;10.408;2023-06-22T09:02:27;24.50;1.00
7000;DHT22;3540;53.242;10.408;2023-06-22T09:04:57;24.80;1.00
7000;DHT22;3540;53.242;10.408;2023-06-22T09:07:23;25.20;1.00
7000;DHT22;3540;53.242;10.408;2023-06-22T09:09:50;25.20;1.00
7000;DHT22;3540;53.242;10.408;2023-06-22T09:12:16;25.60;1.00
7000;DHT22;3540;53.242;10.408;2023-06-22T09:14:42;25.80;1.00
7000;DHT22;3540;53.242;10.408;2023-06-22T09:17:08;26.10;1.00
7000;DHT22;3540;53.242;10.408;2023-06-22T09:19:33;26.00;1.00
7000;DHT22;3540;53.242;10.408;2023-06-22T09:22:00;26.00;1.00
7000;DHT22;3540;53.242;10.408;2023-06-22T09:24:25;25.90;1.00
7000;DHT22;3540;53.242;10.408;2023-06-22T09:26:51;25.50;99.90
7000;DHT22;3540;53.242;10.408;2023-06-22T09:29:17;25.90;1.00
7000;DHT22;3540;53.242;10.408;2023-06-22T09:31:42;25.30;1.00
7000;DHT22;3540;53.242;10.408;2023-06-22T09:34:09;25.40;1.00
7000;DHT22;3540;53.242;10.408;2023-06-22T09:36:35;25.50;18.60
7000;DHT22;3540;53.242;10.408;2023-06-22T09:39:01;26.10;1.00
7000;DHT22;3540;53.242;10.408;2023-06-22T09:41:31;26.30;66.70
7000;DHT22;3540;53.242;10.408;2023-06-22T09:43:57;25.70;1.00
7000;DHT22;3540;53.242;10.408;2023-06-22T09:46:23;25.70;89.80
7000;DHT22;3540;53.242;10.408;2023-06-22T09:48:50;25.50;1.00
7000;DHT22;3540;53.242;10.408;2023-06-22T09:51:16;25.60;1.00
7000;DHT22;3540;53.242;10.408;2023-06-22T09:53:42;25.30;1.00
7000;DHT22;3540;53.242;10.408;2023-06-22T09:56:09;25.20;1.00
7000;DHT22;3540;53.242;10.408;2023-06-22T09:58:43;25.80;1.00
7000;DHT22;3540;53.242;10.408;2023-06-22T10:01:09;26.30;1.00
7000;DHT22;3540;53.242;10.408;2023-06-22T10:03:36;26.80;1.00
7000;DHT22;3540;53.242;10.408;2023-06-22T10:06:01;27.20;1.00
7000;DHT22;3540;53.242;10.408;2023-06-22T10:08:27;26.70;99.90
7000;DHT22;3540;53.242;10.408;2023-06-22T10:10:53;26.10;52.70
7000;DHT22;3540;53.242;10.408;2023-06-22T10:13:18;26.70;1.00
7000;DHT22;3540;53.242;10.408;2023-06-22T10:15:45;27.30;99.90
7000;DHT22;3540;53.242;10.408;2023-06-22T10:18:16;27.50;1.00
7000;DHT22;3540;53.242;10.408;2023-06-22T10:20:43;27.90;99.90
7000;DHT22;3540;53.242;10.408;2023-06-22T10:23:08;28.30;1.00
7000;DHT22;3540;53.242;10.408;2023-06-22T10:25:34;27.90;1.00
7000;DHT22;3540;53.242;10.408;2023-06-22T10:27:59;27.40;1.00
7000;DHT22;3540;53.242;10.408;2023-06-22T10:30:25;26.60;1.00
7000;DHT22;3540;53.242;10.408;2023-06-22T10:32:51;26.90;99.90
7000;DHT22;3540;53.242;10.408;2023-06-22T10:35:16;27.20;99.90
7000;DHT22;3540;53.242;10.408;2023-06-22T10:37:46;27.80;1.00
7000;DHT22;3540;53.242;10.408;2023-06-22T10:40:16;27.10;99.90
7000;DHT22;3540;53.242;10.408;2023-06-22T10:42:42;26.40;1.00
7000;DHT22;3540;53.242;10.408;2023-06-22T10:45:09;26.10;99.90
7000;DHT22;3540;53.242;10.408;2023-06-22T10:47:35;26.50;99.90
7000;DHT22;3540;53.242;10.408;2023-06-22T10:50:01;27.00;1.00
7000;DHT22;3540;53.242;10.408;2023-06-22T10:52:27;26.80;99.90
7000;DHT22;3540;53.242;10.408;2023-06-22T10:54:53;26.70;1.00
7000;DHT22;3540;53.242;10.408;2023-06-22T10:57:18;27.20;1.00
7000;DHT22;3540;53.242;10.408;2023-06-22T10:59:44;28.00;1.00
7000;DHT22;3540;53.242;10.408;2023-06-22T11:02:10;27.40;1.00
7000;DHT22;3540;53.242;10.408;2023-06-22T11:04:35;26.70;1.00
7000;DHT22;3540;53.242;10.408;2023-06-22T11:07:02;26.90;1.00
7000;DHT22;3540;53.242;10.408;2023-06-22T11:09:27;26.60;1.00
7000;DHT22;3540;53.242;10.408;2023-06-22T11:11:53;26.80;1.00
7000;DHT22;3540;53.242;10.408;2023-06-22T11:14:19;27.00;1.00
7000;DHT22;3540;53.242;10.408;2023-06-22T11:16:45;27.60;1.00
7000;DHT22;3540;53.242;10.408;2023-06-22T11:19:12;28.10;1.00
7000;DHT22;3540;53.242;10.408;2023-06-22T11:21:38;28.20;1.00
7000;DHT22;3540;53.242;10.408;2023-06-22T11:24:04;28.70;99.90
7000;DHT22;3540;53.242;10.408;2023-06-22T11:26:30;28.50;99.90
7000;DHT22;3540;53.242;10.408;2023-06-22T11:28:57;28.80;99.90
7000;DHT22;3540;53.242;10.408;2023-06-22T11:31:23;29.10;99.90
7000;DHT22;3540;53.242;10.408;2023-06-22T11:33:49;29.60;99.90
7000;DHT22;3540;53.242;10.408;2023-06-22T11:36:15;29.80;77.80
7000;DHT22;3540;53.242;10.408;2023-06-22T11:38:41;28.50;1.00
7000;DHT22;3540;53.242;10.408;2023-06-22T11:41:08;28.20;1.00
7000;DHT22;3540;53.242;10.408;2023-06-22T11:43:34;28.30;1.00
7000;DHT22;3540;53.242;10.408;2023-06-22T11:46:04;28.40;1.00
7000;DHT22;3540;53.242;10.408;2023-06-22T11:48:30;28.00;1.00
7000;DHT22;3540;53.242;10.408;2023-06-22T11:50:56;27.60;1.00
7000;DHT22;3540;53.242;10.408;2023-06-22T11:53:23;27.70;1.00
7000;DHT22;3540;53.242;10.408;2023-06-22T11:55:49;27.80;99.90
7000;DHT22;3540;53.242;10.408;2023-06-22T11:58:15;27.60;1.00
7000;DHT22;3540;53.242;10.408;2023-06-22T12:00:41;28.10;1.00
7000;DHT22;3540;53.242;10.408;2023-06-22T12:03:07;28.20;1.00
7000;DHT22;3540;53.242;10.408;2023-06-22T12:05:33;28.50;1.00
7000;DHT22;3540;53.242;10.408;2023-06-22T12:08:01;28.50;1.00
7000;DHT22;3540;53.242;10.408;2023-06-22T12:10:27;27.80;1.00
7000;DHT22;3540;53.242;10.408;2023-06-22T12:12:56;27.20;99.90
7000;DHT22;3540;53.242;10.408;2023-06-22T12:15:23;27.40;1.00
7000;DHT22;3540;53.242;10.408;2023-06-22T12:17:49;27.60;99.90
7000;DHT22;3540;53.242;10.408;2023-06-22T12:20:14;27.80;1.00
7000;DHT22;3540;53.242;10.408;2023-06-22T12:22:41;27.30;1.00
7000;DHT22;3540;53.242;10.408;2023-06-22T12:25:07;26.90;1.00
7000;DHT22;3540;53.242;10.408;2023-06-22T12:27:34;26.80;1.00
7000;DHT22;3540;53.242;10.408;2023-06-22T12:30:00;27.00;99.90
7000;DHT22;3540;53.242;10.408;2023-06-22T12:32:25;26.90;1.00
7000;DHT22;3540;53.242;10.408;2023-06-22T12:34:51;26.70;1.00
7000;DHT22;3540;53.242;10.408;2023-06-22T12:37:17;26.70;1.00
7000;DHT22;3540;53.242;10.408;2023-06-22T12:39:43;27.00;99.90
7000;DHT22;3540;53.242;10.408;2023-06-22T12:42:09;27.40;1.00
7000;DHT22;3540;53.242;10.408;2023-06-22T12:44:38;27.70;1.00
7000;DHT22;3540;53.242;10.408;2023-06-22T12:47:04;27.80;1.00
7000;DHT22;3540;53.242;10.408;2023-06-22T12:49:29;27.70;1.00
7000;DHT22;3540;53.242;10.408;2023-06-22T12:51:55;28.00;1.00
7000;DHT22;3540;53.242;10.408;2023-06-22T12:54:21;27.70;99.90
7000;DHT22;3540;53.242;10.408;2023-06-22T12:56:46;27.50;82.70
7000;DHT22;3540;53.242;10.408;2023-06-22T12:59:12;27.30;1.00
7000;DHT22;3540;53.242;10.408;2023-06-22T13:01:38;27.30;1.00
7000;DHT22;3540;53.242;10.408;2023-06-22T13:04:04;27.30;1.00
7000;DHT22;3540;53.242;10.408;2023-06-22T13:06:30;27.00;1.00
7000;DHT22;3540;53.242;10.408;2023-06-22T13:08:56;27.10;1.00
7000;DHT22;3540;53.242;10.408;2023-06-22T13:11:22;27.00;1.00
7000;DHT22;3540;53.242;10.408;2023-06-22T13:13:47;27.00;99.90
7000;DHT22;3540;53.242;10.408;2023-06-22T13:16:13;26.70;34.40
7000;DHT22;3540;53.242;10.408;2023-06-22T13:18:39;26.70;1.00
7000;DHT22;3540;53.242;10.408;2023-06-22T13:21:04;26.60;10.50
7000;DHT22;3540;53.242;10.408;2023-06-22T13:23:30;26.60;1.00
7000;DHT22;3540;53.242;10.408;2023-06-22T13:25:57;26.60;99.90
7000;DHT22;3540;53.242;10.408;2023-06-22T13:28:23;26.40;99.90
7000;DHT22;3540;53.242;10.408;2023-06-22T13:30:48;26.40;99.90
7000;DHT22;3540;53.242;10.408;2023-06-22T13:33:14;26.30;1.00
7000;DHT22;3540;53.242;10.408;2023-06-22T13:35:40;26.20;99.90
7000;DHT22;3540;53.242;10.408;2023-06-22T13:38:08;26.30;1.00
7000;DHT22;3540;53.242;10.408;2023-06-22T13:40:34;26.40;1.00
7000;DHT22;3540;53.242;10.408;2023-06-22T13:43:00;26.60;1.00
7000;DHT22;3540;53.242;10.408;2023-06-22T13:45:26;26.50;1.00
7000;DHT22;3540;53.242;10.408;2023-06-22T13:47:52;26.50;99.90
7000;DHT22;3540;53.242;10.408;2023-06-22T13:50:17;26.40;99.90
7000;DHT22;3540;53.242;10.408;2023-06-22T13:52:43;26.50;1.00
7000;DHT22;3540;53.242;10.408;2023-06-22T13:55:09;26.50;1.00
7000;DHT22;3540;53.242;10.408;2023-06-22T13:57:35;26.60;1.00
7000;DHT22;3540;53.242;10.408;2023-06-22T14:00:01;26.60;99.90
7000;DHT22;3540;53.242;10.408;2023-06-22T14:02:29;26.50;1.00
7000;DHT22;3540;53.242;10.408;2023-06-22T14:04:54;26.40;1.00
7000;DHT22;3540;53.242;10.408;2023-06-22T14:07:20;26.50;1.00
7000;DHT22;3540;53.242;10.408;2023-06-22T14:09:46;26.50;99.90
7000;DHT22;3540;53.242;10.408;2023-06-22T14:12:12;26.20;38.40
7000;DHT22;3540;53.242;10.408;2023-06-22T14:14:38;26.10;43.90
7000;DHT22;3540;53.242;10.408;2023-06-22T14:17:04;26.00;1.00
7000;DHT22;3540;53.242;10.408;2023-06-22T14:19:30;25.90;99.90
7000;DHT22;3540;53.242;10.408;2023-06-22T14:21:57;26.00;99.90
7000;DHT22;3540;53.242;10.408;2023-06-22T14:24:23;25.90;99.90
7000;DHT22;3540;53.242;10.408;2023-06-22T14:26:49;26.00;99.90
7000;DHT22;3540;53.242;10.408;2023-06-22T14:29:15;26.20;1.00
7000;DHT22;3540;53.242;10.408;2023-06-22T14:31:40;26.40;99.90
7000;DHT22;3540;53.242;10.408;2023-06-22T14:34:06;26.70;99.90
7000;DHT22;3540;53.242;10.408;2023-06-22T14:36:32;26.50;99.90
7000;DHT22;3540;53.242;10.408;2023-06-22T14:38:58;26.30;1.00
7000;DHT22;3540;53.242;10.408;2023-06-22T14:41:23;26.30;1.00
7000;DHT22;3540;53.242;10.408;2023-06-22T14:43:52;26.30;1.00
7000;DHT22;3540;53.242;10.408;2023-06-22T14:46:18;26.10;1.00
7000;DHT22;3540;53.242;10.408;2023-06-22T14:48:45;26.10;1.00
7000;DHT22;3540;53.242;10.408;2023-06-22T14:51:12;26.00;1.00
7000;DHT22;3540;53.242;10.408;2023-06-22T14:53:38;26.00;1.00
7000;DHT22;3540;53.242;10.408;2023-06-22T14:56:03;26.00;1.00
7000;DHT22;3540;53.242;10.408;2023-06-22T14:58:33;26.00;1.00
7000;DHT22;3540;53.242;10.408;2023-06-22T15:01:05;26.10;1.00
7000;DHT22;3540;53.242;10.408;2023-06-22T15:03:34;26.00;1.00
7000;DHT22;3540;53.242;10.408;2023-06-22T15:06:01;26.00;99.90
7000;DHT22;3540;53.242;10.408;2023-06-22T15:08:27;26.00;1.00
7000;DHT22;3540;53.242;10.408;2023-06-22T15:10:53;25.90;1.00
7000;DHT22;3540;53.242;10.408;2023-06-22T15:13:20;25.80;1.00
7000;DHT22;3540;53.242;10.408;2023-06-22T15:15:50;25.70;1.00
7000;DHT22;3540;53.242;10.408;2023-06-22T15:18:16;25.60;1.00
7000;DHT22;3540;53.242;10.408;2023-06-22T15:20:42;25.60;1.00
7000;DHT22;3540;53.242;10.408;2023-06-22T15:23:13;25.60;1.00
7000;DHT22;3540;53.242;10.408;2023-06-22T15:25:38;25.60;1.00
7000;DHT22;3540;53.242;10.408;2023-06-22T15:28:04;25.60;1.00
7000;DHT22;3540;53.242;10.408;2023-06-22T15:30:30;25.50;1.00
7000;DHT22;3540;53.242;10.408;2023-06-22T15:32:57;25.50;99.90
7000;DHT22;3540;53.242;10.408;2023-06-22T15:35:22;25.30;99.90
7000;DHT22;3540;53.242;10.408;2023-06-22T15:37:48;25.30;1.00
7000;DHT22;3540;53.242;10.408;2023-06-22T15:40:14;25.20;99.90
7000;DHT22;3540;53.242;10.408;2023-06-22T15:42:40;25.20;1.00
7000;DHT22;3540;53.242;10.408;2023-06-22T15:45:06;25.20;99.90
7000;DHT22;3540;53.242;10.408;2023-06-22T15:47:32;25.20;1.00
7000;DHT22;3540;53.242;10.408;2023-06-22T15:49:57;25.10;1.00
7000;DHT22;3540;53.242;10.408;2023-06-22T15:52:23;25.10;1.00
7000;DHT22;3540;53.242;10.408;2023-06-22T15:54:49;25.10;1.00